createdAt,value
2023-05-05T00:00:37.094Z,59.60
2023-05-05T00:03:03.773Z,59.40
2023-05-05T00:05:30.472Z,59.40
2023-05-05T00:07:57.057Z,59.10
2023-05-05T00:10:23.821Z,59.10
2023-05-05T00:12:50.621Z,59.30
2023-05-05T00:15:17.302Z,59.70
2023-05-05T00:17:43.980Z,59.40
2023-05-05T00:20:11.116Z,59.20
2023-05-05T00:22:37.773Z,59.20
2023-05-05T00:25:04.670Z,59.40
2023-05-05T00:27:31.276Z,59.50
2023-05-05T00:29:57.961Z,59.50
2023-05-05T00:32:24.661Z,59.60
2023-05-05T00:34:51.261Z,59.60
2023-05-05T00:37:17.904Z,59.50
2023-05-05T00:39:44.754Z,59.40
2023-05-05T00:42:11.389Z,59.40
2023-05-05T00:44:41.576Z,59.40
2023-05-05T00:47:11.420Z,59.60
2023-05-05T00:49:38.314Z,59.80
2023-05-05T00:52:05.161Z,60.00
2023-05-05T00:54:31.736Z,60.20
2023-05-05T00:56:58.338Z,60.30
2023-05-05T00:59:24.979Z,60.50
2023-05-05T01:01:51.613Z,60.80
2023-05-05T01:04:18.288Z,60.90
2023-05-05T01:06:55.852Z,61.10
2023-05-05T01:09:45.161Z,61.40
2023-05-05T01:12:33.296Z,61.70
2023-05-05T01:15:33.512Z,61.70
2023-05-05T01:18:11.577Z,62.00
2023-05-05T01:20:55.034Z,62.20
2023-05-05T01:23:44.379Z,62.30
2023-05-05T01:26:55.302Z,62.40
2023-05-05T01:29:41.374Z,62.90
2023-05-05T01:32:14.931Z,62.90
2023-05-05T01:34:48.050Z,63.00
2023-05-05T01:37:26.918Z,63.00
2023-05-05T01:39:56.335Z,63.30
2023-05-05T01:42:22.971Z,63.30
2023-05-05T01:44:49.616Z,63.50
2023-05-05T01:47:16.702Z,63.50
2023-05-05T01:49:43.968Z,63.80
2023-05-05T01:52:10.603Z,64.00
2023-05-05T01:54:37.211Z,64.20
2023-05-05T01:57:03.965Z,64.30
2023-05-05T01:59:31.113Z,64.40
2023-05-05T02:01:57.730Z,64.50
2023-05-05T02:04:24.396Z,64.90
2023-05-05T02:06:51.025Z,65.00
2023-05-05T02:09:17.665Z,65.10
2023-05-05T02:11:44.361Z,65.00
2023-05-05T02:14:11.004Z,65.20
2023-05-05T02:16:38.029Z,65.20
2023-05-05T02:19:04.845Z,65.30
2023-05-05T02:21:31.918Z,65.50
2023-05-05T02:23:58.721Z,65.70
2023-05-05T02:26:25.431Z,65.80
2023-05-05T02:29:03.112Z,65.80
2023-05-05T02:31:30.074Z,65.90
2023-05-05T02:33:57.439Z,66.00
2023-05-05T02:36:27.278Z,66.00
2023-05-05T02:38:59.079Z,66.10
2023-05-05T02:41:25.743Z,66.30
2023-05-05T02:43:52.471Z,66.40
2023-05-05T02:46:19.361Z,66.50
2023-05-05T02:48:46.040Z,66.70
2023-05-05T02:51:12.675Z,66.80
2023-05-05T02:53:39.306Z,66.70
2023-05-05T02:56:10.619Z,66.60
2023-05-05T02:59:05.818Z,66.70
2023-05-05T03:01:51.046Z,66.90
2023-05-05T03:04:34.729Z,66.70
2023-05-05T03:07:11.901Z,66.80
2023-05-05T03:09:41.755Z,67.00
2023-05-05T03:12:12.130Z,67.00
2023-05-05T03:14:42.523Z,67.20
2023-05-05T03:17:12.221Z,67.30
2023-05-05T03:19:41.402Z,67.40
2023-05-05T03:22:08.008Z,67.40
2023-05-05T03:24:34.642Z,67.50
2023-05-05T03:27:01.309Z,67.70
2023-05-05T03:29:27.968Z,67.80
2023-05-05T03:31:54.647Z,67.90
2023-05-05T03:34:21.347Z,67.90
2023-05-05T03:36:47.910Z,67.90
2023-05-05T03:39:14.549Z,68.10
2023-05-05T03:41:41.163Z,67.90
2023-05-05T03:44:07.804Z,68.00
2023-05-05T03:46:34.459Z,68.00
2023-05-05T03:49:01.064Z,68.10
2023-05-05T03:51:27.714Z,68.30
2023-05-05T03:53:54.377Z,68.20
2023-05-05T03:56:20.938Z,68.30
2023-05-05T03:58:47.663Z,68.30
2023-05-05T04:01:14.258Z,68.40
2023-05-05T04:03:40.978Z,68.60
2023-05-05T04:06:07.726Z,68.60
2023-05-05T04:08:34.387Z,68.70
2023-05-05T04:11:00.954Z,68.80
2023-05-05T04:13:27.626Z,69.00
2023-05-05T04:15:54.295Z,69.10
2023-05-05T04:18:20.915Z,69.20
2023-05-05T04:20:47.496Z,69.20
2023-05-05T04:23:14.108Z,69.40
2023-05-05T04:25:40.692Z,69.60
2023-05-05T04:28:07.336Z,69.70
2023-05-05T04:30:33.924Z,69.80
2023-05-05T04:33:00.598Z,69.90
2023-05-05T04:35:27.224Z,70.00
2023-05-05T04:37:53.878Z,70.10
2023-05-05T04:40:20.662Z,70.40
2023-05-05T04:42:47.283Z,70.50
2023-05-05T04:45:13.867Z,70.60
2023-05-05T04:47:40.667Z,70.70
2023-05-05T04:50:08.150Z,70.90
2023-05-05T04:52:35.049Z,70.90
2023-05-05T04:55:01.681Z,70.90
2023-05-05T04:57:29.390Z,71.00
2023-05-05T04:59:56.047Z,71.10
2023-05-05T05:02:23.100Z,71.30
2023-05-05T05:04:49.873Z,71.40
2023-05-05T05:07:16.560Z,71.40
2023-05-05T05:09:43.348Z,71.40
2023-05-05T05:12:10.013Z,71.40
2023-05-05T05:14:37.760Z,71.30
2023-05-05T05:17:04.957Z,71.30
2023-05-05T05:19:31.729Z,71.30
2023-05-05T05:21:58.406Z,71.40
2023-05-05T05:24:25.054Z,71.50
2023-05-05T05:26:51.851Z,71.70
2023-05-05T05:29:18.537Z,71.70
2023-05-05T05:31:45.216Z,71.70
2023-05-05T05:34:12.906Z,71.80
2023-05-05T05:36:39.822Z,72.00
2023-05-05T05:39:06.437Z,72.10
2023-05-05T05:41:33.134Z,72.40
2023-05-05T05:43:59.818Z,72.40
2023-05-05T05:46:26.532Z,72.60
2023-05-05T05:48:53.243Z,72.50
2023-05-05T05:51:19.867Z,72.60
2023-05-05T05:53:46.532Z,72.60
2023-05-05T05:56:13.151Z,72.70
2023-05-05T05:58:39.845Z,72.80
2023-05-05T06:01:06.424Z,72.80
2023-05-05T06:03:33.190Z,72.80
2023-05-05T06:05:59.863Z,72.90
2023-05-05T06:08:26.448Z,73.00
2023-05-05T06:10:53.130Z,73.10
2023-05-05T06:13:19.745Z,73.10
2023-05-05T06:15:46.458Z,72.90
2023-05-05T06:18:13.578Z,73.00
2023-05-05T06:20:40.654Z,72.90
2023-05-05T06:23:08.982Z,72.80
2023-05-05T06:25:36.139Z,72.70
2023-05-05T06:28:03.269Z,72.60
2023-05-05T06:30:30.028Z,72.40
2023-05-05T06:32:56.649Z,72.40
2023-05-05T06:35:23.354Z,72.40
2023-05-05T06:37:50.198Z,72.20
2023-05-05T06:40:16.910Z,72.10
2023-05-05T06:42:43.591Z,72.00
2023-05-05T06:45:10.754Z,71.90
2023-05-05T06:47:37.418Z,71.90
2023-05-05T06:50:04.487Z,71.70
2023-05-05T06:52:31.117Z,71.50
2023-05-05T06:54:57.824Z,71.20
2023-05-05T06:57:24.610Z,71.00
2023-05-05T06:59:51.299Z,70.60
2023-05-05T07:02:17.987Z,70.20
2023-05-05T07:04:44.633Z,69.90
2023-05-05T07:07:11.411Z,69.50
2023-05-05T07:09:38.021Z,69.40
2023-05-05T07:12:04.875Z,69.30
2023-05-05T07:14:31.543Z,68.90
2023-05-05T07:16:58.479Z,68.40
2023-05-05T07:19:25.319Z,67.90
2023-05-05T07:21:52.034Z,67.20
2023-05-05T07:24:20.127Z,66.80
2023-05-05T07:26:46.902Z,66.50
2023-05-05T07:29:13.588Z,65.90
2023-05-05T07:31:40.266Z,65.30
2023-05-05T07:34:07.026Z,64.70
2023-05-05T07:36:33.644Z,64.20
2023-05-05T07:39:00.325Z,63.90
2023-05-05T07:41:26.920Z,63.50
2023-05-05T07:43:53.603Z,62.90
2023-05-05T07:46:20.314Z,62.10
2023-05-05T07:48:46.989Z,61.50
2023-05-05T07:51:13.621Z,61.00
2023-05-05T07:53:41.211Z,60.50
2023-05-05T07:56:07.816Z,59.60
2023-05-05T07:58:34.449Z,58.90
2023-05-05T08:01:01.082Z,58.40
2023-05-05T08:03:28.155Z,57.90
2023-05-05T08:05:56.258Z,57.80
2023-05-05T08:08:24.345Z,57.80
2023-05-05T08:10:51.870Z,57.60
2023-05-05T08:13:21.274Z,57.60
2023-05-05T08:15:48.472Z,57.40
2023-05-05T08:18:18.600Z,56.80
2023-05-05T08:20:46.254Z,57.50
2023-05-05T08:23:13.298Z,57.10
2023-05-05T08:25:41.273Z,56.60
2023-05-05T08:28:09.267Z,56.10
2023-05-05T08:30:36.519Z,55.50
2023-05-05T08:33:03.593Z,55.40
2023-05-05T08:35:30.884Z,55.70
2023-05-05T08:38:02.666Z,55.50
2023-05-05T08:40:31.970Z,55.40
2023-05-05T08:42:59.674Z,56.40
2023-05-05T08:45:28.763Z,57.60
2023-05-05T08:47:56.944Z,59.10
2023-05-05T08:50:26.112Z,61.10
2023-05-05T08:53:09.692Z,62.60
2023-05-05T08:55:52.016Z,63.50
2023-05-05T08:58:19.011Z,64.20
2023-05-05T09:00:46.256Z,65.00
2023-05-05T09:03:13.198Z,65.80
2023-05-05T09:05:40.148Z,66.90
2023-05-05T09:08:06.936Z,68.00
2023-05-05T09:10:33.745Z,69.10
2023-05-05T09:13:00.575Z,70.40
2023-05-05T09:15:27.359Z,71.50
2023-05-05T09:17:56.487Z,72.90
2023-05-05T09:20:23.147Z,73.60
2023-05-05T09:22:49.798Z,74.10
2023-05-05T09:25:17.671Z,75.20
2023-05-05T09:27:48.492Z,75.90
2023-05-05T09:30:16.654Z,76.80
2023-05-05T09:32:50.865Z,77.30
2023-05-05T09:35:18.447Z,77.70
2023-05-05T09:37:45.273Z,77.70
2023-05-05T09:40:13.827Z,76.50
2023-05-05T09:42:40.747Z,76.20
2023-05-05T09:45:19.320Z,76.40
2023-05-05T09:47:46.536Z,76.60
2023-05-05T09:50:13.603Z,76.60
2023-05-05T09:52:40.497Z,76.50
2023-05-05T09:55:08.694Z,76.60
2023-05-05T09:57:35.305Z,76.90
2023-05-05T10:00:02.390Z,77.10
2023-05-05T10:02:33.276Z,77.20
2023-05-05T10:05:10.198Z,77.50
2023-05-05T10:07:39.962Z,77.60
2023-05-05T10:10:09.503Z,77.90
2023-05-05T10:12:36.837Z,78.30
2023-05-05T10:15:07.964Z,78.60
2023-05-05T10:17:50.956Z,78.50
2023-05-05T10:20:25.260Z,78.40
2023-05-05T10:22:52.683Z,78.10
2023-05-05T10:25:30.056Z,78.10
2023-05-05T10:27:59.555Z,78.20
2023-05-05T10:30:28.445Z,78.10
2023-05-05T10:33:12.274Z,79.00
2023-05-05T10:35:44.938Z,78.20
2023-05-05T10:38:12.490Z,78.20
2023-05-05T10:40:45.390Z,78.00
2023-05-05T10:43:13.801Z,77.30
2023-05-05T10:45:41.170Z,77.50
2023-05-05T10:48:10.366Z,77.60
2023-05-05T10:50:41.260Z,77.80
2023-05-05T10:53:21.344Z,77.50
2023-05-05T10:56:10.553Z,77.40
2023-05-05T10:58:46.903Z,77.20
2023-05-05T11:01:14.661Z,76.90
2023-05-05T11:03:41.416Z,76.90
2023-05-05T11:06:08.525Z,77.10
2023-05-05T11:08:39.033Z,77.40
2023-05-05T11:11:05.834Z,77.20
2023-05-05T11:13:32.610Z,76.30
2023-05-05T11:15:59.915Z,75.60
2023-05-05T11:18:59.044Z,74.70
2023-05-05T11:21:25.740Z,73.90
2023-05-05T11:23:52.363Z,73.60
2023-05-05T11:26:48.577Z,73.60
2023-05-05T11:29:15.387Z,73.50
2023-05-05T11:31:42.244Z,73.60
2023-05-05T11:34:47.509Z,73.80
2023-05-05T11:37:14.133Z,73.90
2023-05-05T11:40:02.707Z,74.20
2023-05-05T11:42:29.462Z,76.40
2023-05-05T11:44:56.291Z,75.90
2023-05-05T11:47:22.923Z,78.00
2023-05-05T11:49:49.711Z,79.80
2023-05-05T11:52:16.443Z,80.40
2023-05-05T11:54:44.928Z,80.50
2023-05-05T11:57:11.646Z,81.30
2023-05-05T11:59:50.089Z,81.90
2023-05-05T12:02:17.696Z,82.40
2023-05-05T12:04:44.301Z,82.80
2023-05-05T12:07:20.731Z,83.00
2023-05-05T12:09:47.974Z,83.40
2023-05-05T12:12:14.806Z,83.50
2023-05-05T12:14:45.597Z,83.60
2023-05-05T12:17:12.249Z,83.50
2023-05-05T12:19:47.787Z,83.20
2023-05-05T12:22:28.144Z,83.40
2023-05-05T12:24:55.543Z,83.10
2023-05-05T12:27:22.194Z,83.20
2023-05-05T12:29:48.983Z,83.40
2023-05-05T12:32:22.806Z,83.70
2023-05-05T12:34:50.828Z,84.00
2023-05-05T12:37:17.485Z,83.90
2023-05-05T12:39:44.168Z,84.30
2023-05-05T12:42:10.951Z,85.00
2023-05-05T12:44:38.139Z,85.50
2023-05-05T12:47:05.010Z,85.50
2023-05-05T12:49:31.838Z,84.60
2023-05-05T12:51:58.738Z,84.50
2023-05-05T12:54:25.625Z,84.30
2023-05-05T12:56:52.284Z,84.10
2023-05-05T12:59:22.297Z,84.20
2023-05-05T13:01:53.100Z,84.00
2023-05-05T13:04:21.079Z,84.00
2023-05-05T13:06:48.748Z,84.20
2023-05-05T13:09:25.202Z,84.80
2023-05-05T13:11:52.418Z,84.90
2023-05-05T13:14:19.087Z,83.40
2023-05-05T13:16:45.833Z,82.00
2023-05-05T13:19:12.492Z,80.30
2023-05-05T13:21:39.203Z,79.20
2023-05-05T13:24:23.050Z,78.40
2023-05-05T13:26:52.953Z,77.80
2023-05-05T13:29:19.707Z,77.50
2023-05-05T13:31:46.456Z,77.10
2023-05-05T13:34:13.223Z,76.80
2023-05-05T13:36:39.926Z,75.00
2023-05-05T13:39:06.593Z,73.00
2023-05-05T13:41:48.674Z,72.10
2023-05-05T13:44:15.340Z,71.00
2023-05-05T13:46:42.235Z,71.10
2023-05-05T13:49:08.905Z,71.20
2023-05-05T13:51:35.640Z,71.10
2023-05-05T13:54:04.921Z,71.00
2023-05-05T13:56:31.539Z,70.50
2023-05-05T13:58:58.156Z,70.00
2023-05-05T14:01:24.888Z,70.00
2023-05-05T14:03:51.633Z,70.40
2023-05-05T14:06:18.308Z,71.30
2023-05-05T14:08:45.074Z,72.60
2023-05-05T14:11:11.729Z,73.20
2023-05-05T14:13:38.437Z,73.30
2023-05-05T14:16:05.377Z,72.80
2023-05-05T14:18:31.983Z,72.40
2023-05-05T14:20:58.624Z,72.10
2023-05-05T14:23:25.274Z,72.20
2023-05-05T14:25:51.988Z,71.90
2023-05-05T14:28:18.677Z,71.60
2023-05-05T14:30:45.321Z,72.10
2023-05-05T14:33:11.993Z,72.50
2023-05-05T14:35:38.685Z,71.80
2023-05-05T14:38:05.489Z,71.30
2023-05-05T14:40:32.250Z,69.50
2023-05-05T14:42:58.907Z,68.50
2023-05-05T14:45:25.588Z,67.90
2023-05-05T14:47:52.958Z,67.40
2023-05-05T14:50:19.665Z,66.20
2023-05-05T14:52:46.393Z,65.90
2023-05-05T14:55:13.163Z,65.30
2023-05-05T14:57:39.808Z,64.50
2023-05-05T15:00:07.219Z,63.80
2023-05-05T15:02:33.946Z,63.50
2023-05-05T15:05:00.792Z,63.30
2023-05-05T15:07:27.463Z,63.20
2023-05-05T15:09:55.751Z,63.40
2023-05-05T15:12:22.860Z,63.60
2023-05-05T15:14:49.563Z,63.70
2023-05-05T15:17:16.902Z,63.50
2023-05-05T15:19:43.614Z,63.60
2023-05-05T15:22:10.336Z,62.70
2023-05-05T15:24:36.973Z,62.10
2023-05-05T15:27:03.682Z,61.90
2023-05-05T15:29:30.304Z,62.20
2023-05-05T15:31:57.065Z,61.90
2023-05-05T15:34:23.701Z,61.40
2023-05-05T15:36:50.329Z,61.30
2023-05-05T15:39:17.025Z,61.40
2023-05-05T15:41:43.689Z,61.40
2023-05-05T15:44:12.284Z,61.00
2023-05-05T15:46:41.635Z,61.60
2023-05-05T15:49:08.332Z,62.50
2023-05-05T15:51:34.989Z,63.20
2023-05-05T15:54:01.647Z,63.70
2023-05-05T15:56:28.442Z,63.90
2023-05-05T15:58:55.171Z,64.30
2023-05-05T16:01:21.952Z,64.70
2023-05-05T16:03:48.604Z,64.90
2023-05-05T16:06:15.293Z,65.10
2023-05-05T16:08:41.967Z,65.10
2023-05-05T16:11:08.811Z,65.30
2023-05-05T16:13:35.407Z,65.20
2023-05-05T16:16:02.045Z,65.60
2023-05-05T16:18:28.822Z,65.80
2023-05-05T16:20:55.395Z,66.10
2023-05-05T16:23:22.052Z,66.20
2023-05-05T16:25:48.768Z,66.70
2023-05-05T16:28:18.781Z,67.20
2023-05-05T16:30:45.417Z,67.30
2023-05-05T16:33:12.066Z,67.10
2023-05-05T16:35:38.768Z,67.30
2023-05-05T16:38:05.452Z,67.50
2023-05-05T16:40:32.177Z,67.60
2023-05-05T16:42:58.787Z,67.70
2023-05-05T16:45:25.430Z,67.70
2023-05-05T16:47:54.192Z,67.90
2023-05-05T16:50:21.570Z,68.30
2023-05-05T16:52:48.457Z,68.20
2023-05-05T16:55:15.241Z,67.80
2023-05-05T16:57:41.846Z,67.90
2023-05-05T17:00:11.962Z,68.10
2023-05-05T17:02:38.631Z,67.70
2023-05-05T17:05:05.920Z,68.00
2023-05-05T17:07:32.685Z,67.80
2023-05-05T17:09:59.417Z,67.80
2023-05-05T17:12:26.079Z,68.20
2023-05-05T17:14:52.799Z,68.40
2023-05-05T17:17:19.508Z,68.30
2023-05-05T17:19:46.183Z,68.10
2023-05-05T17:22:12.922Z,68.10
2023-05-05T17:24:40.094Z,67.90
2023-05-05T17:27:06.828Z,67.30
2023-05-05T17:29:33.505Z,66.80
2023-05-05T17:32:03.156Z,66.30
2023-05-05T17:34:29.800Z,66.10
2023-05-05T17:36:56.432Z,66.50
2023-05-05T17:39:23.046Z,66.10
2023-05-05T17:41:49.718Z,65.90
2023-05-05T17:44:16.967Z,65.70
2023-05-05T17:46:43.650Z,65.60
2023-05-05T17:49:10.388Z,65.90
2023-05-05T17:51:37.068Z,65.70
2023-05-05T17:54:03.909Z,65.60
2023-05-05T17:56:30.599Z,65.90
2023-05-05T17:58:57.400Z,65.70
2023-05-05T18:01:24.684Z,65.70
2023-05-05T18:03:51.524Z,65.90
2023-05-05T18:06:18.388Z,66.50
2023-05-05T18:08:45.059Z,67.10
2023-05-05T18:11:11.674Z,67.40
2023-05-05T18:13:38.466Z,67.60
2023-05-05T18:16:05.528Z,67.80
2023-05-05T18:18:32.375Z,67.50
2023-05-05T18:20:59.069Z,67.50
2023-05-05T18:23:25.767Z,67.90
2023-05-05T18:25:52.454Z,68.00
2023-05-05T18:28:19.157Z,67.90
2023-05-05T18:30:45.860Z,68.20
2023-05-05T18:33:12.559Z,68.40
2023-05-05T18:35:39.193Z,68.50
2023-05-05T18:38:05.902Z,68.80
2023-05-05T18:40:32.660Z,69.00
2023-05-05T18:42:59.312Z,69.10
2023-05-05T18:45:25.981Z,69.10
2023-05-05T18:47:52.670Z,69.50
2023-05-05T18:50:19.342Z,69.50
2023-05-05T18:52:46.060Z,69.90
2023-05-05T18:55:12.760Z,70.00
2023-05-05T18:57:39.404Z,70.20
2023-05-05T19:00:06.857Z,70.30
2023-05-05T19:02:33.527Z,70.50
2023-05-05T19:05:00.247Z,70.90
2023-05-05T19:07:34.917Z,71.30
2023-05-05T19:10:06.534Z,71.20
2023-05-05T19:12:33.183Z,71.20
2023-05-05T19:14:59.827Z,71.20
2023-05-05T19:17:26.508Z,71.40
2023-05-05T19:19:53.186Z,71.80
2023-05-05T19:22:19.784Z,71.90
2023-05-05T19:24:46.494Z,72.00
2023-05-05T19:27:14.762Z,72.20
2023-05-05T19:29:43.241Z,72.70
2023-05-05T19:32:09.939Z,72.90
2023-05-05T19:34:36.820Z,73.10
2023-05-05T19:37:03.471Z,73.20
2023-05-05T19:39:30.090Z,73.40
2023-05-05T19:41:56.697Z,73.50
2023-05-05T19:44:23.416Z,73.70
2023-05-05T19:46:50.054Z,73.70
2023-05-05T19:49:16.805Z,73.70
2023-05-05T19:51:43.479Z,73.90
2023-05-05T19:54:10.095Z,74.20
2023-05-05T19:56:36.838Z,74.40
2023-05-05T19:59:05.813Z,74.30
2023-05-05T20:01:32.617Z,74.60
2023-05-05T20:03:59.420Z,74.70
2023-05-05T20:06:26.176Z,74.80
2023-05-05T20:08:52.918Z,75.10
2023-05-05T20:11:19.551Z,75.20
2023-05-05T20:13:46.387Z,75.20
2023-05-05T20:16:13.242Z,75.20
2023-05-05T20:18:39.968Z,75.10
2023-05-05T20:21:06.670Z,75.10
2023-05-05T20:23:33.349Z,75.20
2023-05-05T20:26:00.196Z,75.20
2023-05-05T20:28:26.836Z,75.30
2023-05-05T20:30:53.616Z,75.20
2023-05-05T20:33:20.229Z,75.10
2023-05-05T20:35:47.146Z,75.00
2023-05-05T20:38:13.953Z,75.00
2023-05-05T20:40:40.653Z,75.00
2023-05-05T20:43:07.372Z,75.20
2023-05-05T20:45:34.675Z,75.30
2023-05-05T20:48:04.104Z,75.40
2023-05-05T20:50:30.997Z,75.50
2023-05-05T20:52:57.716Z,75.60
2023-05-05T20:55:25.336Z,75.60
2023-05-05T20:57:51.980Z,75.70
2023-05-05T21:00:18.706Z,75.80
2023-05-05T21:02:45.462Z,75.90
2023-05-05T21:05:12.348Z,76.00
2023-05-05T21:07:39.098Z,76.20
2023-05-05T21:10:06.378Z,76.30
2023-05-05T21:12:33.690Z,76.50
2023-05-05T21:15:00.417Z,76.70
2023-05-05T21:17:27.162Z,76.70
2023-05-05T21:19:53.973Z,76.80
2023-05-05T21:22:20.820Z,77.00
2023-05-05T21:24:47.501Z,77.20
2023-05-05T21:27:14.284Z,77.20
2023-05-05T21:29:41.129Z,77.30
2023-05-05T21:32:08.602Z,77.30
2023-05-05T21:34:35.325Z,77.30
2023-05-05T21:37:02.045Z,77.30
2023-05-05T21:39:28.908Z,77.40
2023-05-05T21:41:55.544Z,77.50
2023-05-05T21:44:22.278Z,77.60
2023-05-05T21:46:49.162Z,77.70
2023-05-05T21:49:16.860Z,77.70
2023-05-05T21:51:43.746Z,77.90
2023-05-05T21:54:10.486Z,77.80
2023-05-05T21:56:37.325Z,78.00
2023-05-05T21:59:04.761Z,77.90
2023-05-05T22:01:31.751Z,78.10
2023-05-05T22:03:58.693Z,78.20
2023-05-05T22:06:25.400Z,78.20
2023-05-05T22:08:52.390Z,78.40
2023-05-05T22:11:19.279Z,78.60
2023-05-05T22:13:46.385Z,78.60
2023-05-05T22:16:14.907Z,78.80
2023-05-05T22:18:41.553Z,79.10
2023-05-05T22:21:08.192Z,79.10
2023-05-05T22:23:34.916Z,79.20
2023-05-05T22:26:01.574Z,79.40
2023-05-05T22:28:28.196Z,79.50
2023-05-05T22:30:54.937Z,79.60
2023-05-05T22:33:21.600Z,79.70
2023-05-05T22:35:48.232Z,79.80
2023-05-05T22:38:14.906Z,80.00
2023-05-05T22:40:41.516Z,80.00
2023-05-05T22:43:08.192Z,80.20
2023-05-05T22:45:34.790Z,80.30
2023-05-05T22:48:01.520Z,80.40
2023-05-05T22:50:28.287Z,80.40
2023-05-05T22:52:54.979Z,80.40
2023-05-05T22:55:21.688Z,80.50
2023-05-05T22:57:48.390Z,80.70
2023-05-05T23:00:15.133Z,80.70
2023-05-05T23:02:41.812Z,80.70
2023-05-05T23:05:09.043Z,80.80
2023-05-05T23:07:35.863Z,80.90
2023-05-05T23:10:03.153Z,81.00
2023-05-05T23:12:29.830Z,80.90
2023-05-05T23:14:56.478Z,81.10
2023-05-05T23:17:23.150Z,81.20
2023-05-05T23:19:49.807Z,81.10
2023-05-05T23:22:16.434Z,81.10
2023-05-05T23:24:43.083Z,81.30
2023-05-05T23:27:09.774Z,81.30
2023-05-05T23:29:36.417Z,81.40
2023-05-05T23:32:03.036Z,81.50
2023-05-05T23:34:29.682Z,81.50
2023-05-05T23:36:56.325Z,81.60
2023-05-05T23:39:22.957Z,81.70
2023-05-05T23:41:49.586Z,81.70
2023-05-05T23:44:16.252Z,81.80
2023-05-05T23:46:43.087Z,81.90
2023-05-05T23:49:09.886Z,81.80
2023-05-05T23:51:36.557Z,82.00
2023-05-05T23:54:03.278Z,82.10
2023-05-05T23:56:29.925Z,82.10
2023-05-05T23:58:56.556Z,82.20
